Benge, WA

8:42 AM PDT on October 25, 2014 (GMT -0700)
Pullman-Moscow Regional | Change Station
CLOSE
Current Station
Airport
Location: Pullman,
Elevation: 2552 ft
Nearby Weather Stations
Active Advisory: Wind Advisory

Elev 2552 ft 46.74 °N, 117.12 °W | Updated 49 minutes ago

Clear
Clear
50 °F
Feels Like 50 °F
N
16
Wind Variable Wind from East

Today
High -- | Low -- °F
--% Chance of Precip.
Yesterday
High -- | Low -- °F
Precip. -- in
7:24 AM 5:47 PM
Waxing Crescent, 3% visible
Pressure 29.72 in
Visibility 10.0 miles
Clouds Clear
Dew Point 41 °F
Humidity 71%
Rainfall 0.00 in
Snow Depth Not available.
UV 0 out of 12
Pollen 1.50 out of 12
Air Quality Not available.
Flu Activity Sporadic
METAR KPUW 251453Z AUTO 10014KT 10SM CLR 10/05 A2971 RMK AO2 SLP063 T01000050 58016

More Conditions Fewer Conditions

Pressure 29.72 in
Visibility 10.0 miles
Clouds Clear
Dew Point 41 °F
Humidity 71%
Rainfall 0.00 in
Snow Depth Not available.
UV 0 out of 12
Pollen 1.50 out of 12
Air Quality Not available.
Flu Activity Sporadic
METAR KPUW 251453Z AUTO 10014KT 10SM CLR 10/05 A2971 RMK AO2 SLP063 T01000050 58016

More Conditions Fewer Conditions

10-Day Weather Forecast

Almanac

Astronomy

Oct. 25, 2014 Rise Set
Actual Time 7:24 AM PDT 5:47 PM PDT
Civil Twilight 6:53 AM PDT 6:18 PM PDT
Nautical Twilight 6:17 AM PDT 6:53 PM PDT
Astronomical Twilight 5:42 AM PDT 7:28 PM PDT
Moon 9:12 AM PDT 7:07 PM PDT
Length of Visible Light 11h 25m
Length of Day
10h 22m
Tomorrow will be 3m 7s shorter.
Waxing Crescent, 3% of the Moon is Illuminated
Today
Waxing Crescent
Oct 30
First Quarter
Nov 6
Full
Nov 14
Last Quarter
Nov 22
New

Today's Extremes

State Highs State Lows

Community

WunderPhotos

Upload Photos

1,764,879 photos uploaded!

Nearby

Snow Depth

Station Depth Elevation
Touchet 1 in 5530 ft
Spruce Springs 1 in 5700 ft
Sourdough Gulch 1 in 4000 ft
Quartz Peak 2 in 4700 ft
Trough 0 in 5300 ft

Earthquake Activity

City Distance Mag. Time & Date
No recent earthquake activity has been reported nearby.
Minimum magnitude displayed is 2.5.

Coastal Water Temperatures

Place Temperature
No Stations Reporting

Nearby Weather Stations